Time;durP1;ratioP1;P1;durP2;ratioP2;P2;SDS_P1;SDS_P2;PMS_P1;PMS_P2;Temp;Humidity;BMP_temperature;BMP_pressure;BME280_temperature;BME280_humidity;BME280_pressure;Samples;Min_cycle;Max_cycle;Signal;HPM_P1;HPM_P2
2021/01/13 06:01:53;;;;;;;;;;;;;;;;;;5066648;28;20980;-58
2021/01/13 06:04:22;;;;;;;0.52;0.30;;;;;;;;;;5065153;28;19962;-60
2021/01/13 06:06:58;;;;;;;4.13;1.02;;;;;;;;;;5064424;28;20100;-59
2021/01/13 06:09:25;;;;;;;2.08;0.00;;;;;;;;;;5048896;28;20031;-59
2021/01/13 06:11:55;;;;;;;0.00;0.00;;;;;;;;;;5064056;28;20029;-59
2021/01/13 06:14:28;;;;;;;0.90;0.32;;;;;;;;;;5064700;28;20545;-59
2021/01/13 06:16:55;;;;;;;0.00;0.00;;;;;;;;;;5064321;28;20032;-59
2021/01/13 06:19:21;;;;;;;12.40;0.32;;;;;;;;;;5064233;28;20477;-59
2021/01/13 06:21:48;;;;;;;3.03;0.40;;;;;;;;;;5063098;28;20035;-59
2021/01/13 06:24:14;;;;;;;0.00;0.00;;;;;;;;;;5065501;28;20127;-59
2021/01/13 06:26:46;;;;;;;0.00;0.00;;;;;;;;;;5066451;28;20021;-59
2021/01/13 06:29:24;;;;;;;0.73;0.22;;;;;;;;;;5063793;28;20029;-60
2021/01/13 06:31:56;;;;;;;0.00;0.00;;;;;;;;;;5064293;28;20067;-59
2021/01/13 06:34:29;;;;;;;9.65;0.35;;;;;;;;;;5065242;28;20414;-59
2021/01/13 06:37:12;;;;;;;0.00;0.00;;;;;;;;;;5065273;28;20040;-59
2021/01/13 06:39:38;;;;;;;0.10;0.10;;;;;;;;;;5062344;28;20413;-59
2021/01/13 06:42:04;;;;;;;0.00;0.00;;;;;;;;;;5065700;28;20100;-59
2021/01/13 06:44:44;;;;;;;8.68;0.47;;;;;;;;;;5066933;28;20098;-59
2021/01/13 06:47:10;;;;;;;0.40;0.13;;;;;;;;;;5065767;28;20175;-59
2021/01/13 06:49:36;;;;;;;0.00;0.00;;;;;;;;;;5063092;28;20028;-58
2021/01/13 06:52:03;;;;;;;0.00;0.00;;;;;;;;;;5063513;28;20036;-59
2021/01/13 06:54:30;;;;;;;0.00;0.00;;;;;;;;;;5063545;28;20020;-59
2021/01/13 06:56:58;;;;;;;0.00;0.00;;;;;;;;;;5065201;28;20067;-59
2021/01/13 06:59:24;;;;;;;0.08;0.00;;;;;;;;;;5063759;28;20040;-59
2021/01/13 07:01:54;;;;;;;0.43;0.20;;;;;;;;;;5058983;28;20638;-59
2021/01/13 07:04:21;;;;;;;0.00;0.00;;;;;;;;;;5049679;28;20031;-59
2021/01/13 07:07:16;;;;;;;0.00;0.00;;;;;;;;;;5049786;28;20031;-59
2021/01/13 07:09:43;;;;;;;1.02;0.47;;;;;;;;;;5036014;28;20053;-59
2021/01/13 07:12:11;;;;;;;0.08;0.08;;;;;;;;;;5051773;28;20021;-59
2021/01/13 07:14:38;;;;;;;0.60;0.22;;;;;;;;;;5036004;28;20039;-59
2021/01/13 07:17:07;;;;;;;0.13;0.13;;;;;;;;;;5047560;28;20055;-59
2021/01/13 07:19:35;;;;;;;0.60;0.15;;;;;;;;;;5047723;28;20112;-57
2021/01/13 07:22:01;;;;;;;0.60;0.32;;;;;;;;;;5050947;28;20550;-57
2021/01/13 07:24:28;;;;;;;0.05;0.05;;;;;;;;;;5051496;28;20433;-57
2021/01/13 07:26:56;;;;;;;2.55;0.00;;;;;;;;;;5051183;28;20539;-57
2021/01/13 07:29:24;;;;;;;1.95;0.08;;;;;;;;;;5050762;28;20060;-57
2021/01/13 07:31:52;;;;;;;0.15;0.15;;;;;;;;;;5048714;28;20040;-56
2021/01/13 07:34:21;;;;;;;0.00;0.00;;;;;;;;;;5050087;28;20099;-57
2021/01/13 07:36:51;;;;;;;2.53;0.65;;;;;;;;;;5044351;28;20033;-57
2021/01/13 07:39:18;;;;;;;2.33;1.45;;;;;;;;;;5050419;28;20021;-58
2021/01/13 07:41:47;;;;;;;6.45;0.85;;;;;;;;;;5052274;28;20055;-58
2021/01/13 07:44:19;;;;;;;6.63;1.00;;;;;;;;;;5041327;28;20025;-57
2021/01/13 07:46:55;;;;;;;0.00;0.00;;;;;;;;;;5046386;28;20036;-56
2021/01/13 07:49:22;;;;;;;0.00;0.00;;;;;;;;;;5044961;28;20088;-57
2021/01/13 07:51:55;;;;;;;0.38;0.00;;;;;;;;;;5048460;28;20029;-58
2021/01/13 07:54:29;;;;;;;0.00;0.00;;;;;;;;;;5047208;28;20049;-57
2021/01/13 07:57:00;;;;;;;0.00;0.00;;;;;;;;;;5049754;28;20035;-56
2021/01/13 07:59:29;;;;;;;0.00;0.00;;;;;;;;;;5045495;28;20417;-55
2021/01/13 08:01:58;;;;;;;1.85;1.70;;;;;;;;;;5047237;28;20040;-56
2021/01/13 08:04:39;;;;;;;0.65;0.30;;;;;;;;;;5045534;28;20024;-57
2021/01/13 08:07:14;;;;;;;0.00;0.00;;;;;;;;;;5045730;28;20083;-58
2021/01/13 08:09:46;;;;;;;0.00;0.00;;;;;;;;;;5046875;28;20040;-58
2021/01/13 08:12:24;;;;;;;0.57;0.57;;;;;;;;;;5045789;28;20033;-57
2021/01/13 08:15:03;;;;;;;0.00;0.00;;;;;;;;;;5047944;28;20514;-57
2021/01/13 08:17:54;;;;;;;0.85;0.85;;;;;;;;;;5044472;28;20044;-58
2021/01/13 08:20:23;;;;;;;0.15;0.08;;;;;;;;;;5049714;28;20033;-58
2021/01/13 08:23:09;;;;;;;0.17;0.17;;;;;;;;;;5048327;28;20114;-58
2021/01/13 08:25:42;;;;;;;0.05;0.05;;;;;;;;;;5048096;28;20037;-56
2021/01/13 08:28:12;;;;;;;0.00;0.00;;;;;;;;;;5048185;28;20053;-57
2021/01/13 08:30:42;;;;;;;21.40;2.63;;;;;;;;;;5049689;28;20044;-57
2021/01/13 08:33:10;;;;;;;2.63;0.65;;;;;;;;;;5050002;28;20013;-56
2021/01/13 08:35:37;;;;;;;0.17;0.17;;;;;;;;;;5049534;28;20039;-57
2021/01/13 08:38:07;;;;;;;0.30;0.10;;;;;;;;;;5039987;28;20037;-56
2021/01/13 08:40:35;;;;;;;0.60;0.17;;;;;;;;;;5041430;28;20029;-59
2021/01/13 08:43:13;;;;;;;0.52;0.10;;;;;;;;;;5047756;28;20103;-56
2021/01/13 08:45:46;;;;;;;0.00;0.00;;;;;;;;;;5047313;28;20037;-57
2021/01/13 08:48:13;;;;;;;0.00;0.00;;;;;;;;;;5049684;28;20494;-58
2021/01/13 08:50:40;;;;;;;2.17;0.45;;;;;;;;;;5050100;28;20126;-58
2021/01/13 08:53:07;;;;;;;4.38;0.93;;;;;;;;;;5048042;28;20025;-57
2021/01/13 08:55:35;;;;;;;0.38;0.20;;;;;;;;;;5049209;28;20057;-55
2021/01/13 08:58:12;;;;;;;0.17;0.17;;;;;;;;;;5047307;28;20029;-56
2021/01/13 09:00:39;;;;;;;5.47;0.68;;;;;;;;;;5046682;28;20528;-56
2021/01/13 09:03:06;;;;;;;2.00;0.20;;;;;;;;;;5049635;28;20409;-53
2021/01/13 09:05:34;;;;;;;0.05;0.05;;;;;;;;;;5048757;28;20502;-53
2021/01/13 09:08:02;;;;;;;0.00;0.00;;;;;;;;;;5047658;28;20117;-55
2021/01/13 09:10:46;;;;;;;7.35;1.48;;;;;;;;;;5047038;28;20037;-54
2021/01/13 09:13:31;;;;;;;2.40;0.25;;;;;;;;;;5047031;28;20112;-54
2021/01/13 09:15:57;;;;;;;0.07;0.07;;;;;;;;;;5047301;28;20044;-56
2021/01/13 09:18:24;;;;;;;0.10;0.10;;;;;;;;;;5031706;28;20259;-57
2021/01/13 09:20:50;;;;;;;0.00;0.00;;;;;;;;;;5049559;28;20031;-58
2021/01/13 09:23:23;;;;;;;0.10;0.10;;;;;;;;;;5046935;28;20032;-55
2021/01/13 09:25:55;;;;;;;0.15;0.15;;;;;;;;;;5047332;28;20033;-57
2021/01/13 09:28:22;;;;;;;1.42;1.33;;;;;;;;;;5047396;28;20025;-56
2021/01/13 09:30:48;;;;;;;12.68;1.35;;;;;;;;;;5048154;28;20033;-57
2021/01/13 09:33:15;;;;;;;4.03;0.30;;;;;;;;;;5049137;28;20037;-55
2021/01/13 09:35:42;;;;;;;0.10;0.10;;;;;;;;;;5045275;28;20048;-56
2021/01/13 09:38:10;;;;;;;0.20;0.10;;;;;;;;;;5043720;28;20021;-58
2021/01/13 09:40:51;;;;;;;2.72;0.80;;;;;;;;;;5041234;28;20021;-55
2021/01/13 09:43:36;;;;;;;0.00;0.00;;;;;;;;;;5044916;28;20032;-57
2021/01/13 09:46:07;;;;;;;10.80;0.63;;;;;;;;;;5043824;28;20026;-55
2021/01/13 09:48:34;;;;;;;0.20;0.20;;;;;;;;;;5045117;28;20021;-57
2021/01/13 09:51:03;;;;;;;0.38;0.28;;;;;;;;;;5044894;28;20446;-56
2021/01/13 09:53:30;;;;;;;2.40;0.40;;;;;;;;;;5044392;28;20052;-55
2021/01/13 09:56:04;;;;;;;0.43;0.43;;;;;;;;;;5040751;28;20027;-54
2021/01/13 09:58:38;;;;;;;0.52;0.10;;;;;;;;;;5042186;28;20029;-55
2021/01/13 10:01:09;;;;;;;4.20;0.40;;;;;;;;;;5045708;28;20041;-57
2021/01/13 10:03:35;;;;;;;0.05;0.05;;;;;;;;;;5045374;28;20530;-57
2021/01/13 10:06:02;;;;;;;1.25;0.68;;;;;;;;;;5048664;28;20040;-56
2021/01/13 10:08:31;;;;;;;2.97;0.40;;;;;;;;;;5048374;28;20037;-57
2021/01/13 10:11:01;;;;;;;0.20;0.20;;;;;;;;;;5043972;28;20037;-55
2021/01/13 10:13:30;;;;;;;3.03;0.80;;;;;;;;;;5045807;28;20021;-56
2021/01/13 10:16:00;;;;;;;8.45;1.45;;;;;;;;;;5046389;28;20029;-55
2021/01/13 10:18:27;;;;;;;0.20;0.20;;;;;;;;;;5047096;28;20021;-55
2021/01/13 10:21:01;;;;;;;0.10;0.10;;;;;;;;;;5047618;28;20116;-56
2021/01/13 10:23:28;;;;;;;0.25;0.25;;;;;;;;;;5046400;28;20029;-55
2021/01/13 10:26:07;;;;;;;3.05;0.30;;;;;;;;;;5043105;28;20183;-58
2021/01/13 10:28:33;;;;;;;0.47;0.28;;;;;;;;;;5046349;28;20406;-58
2021/01/13 10:31:00;;;;;;;0.40;0.40;;;;;;;;;;5045856;28;20044;-55
2021/01/13 10:33:43;;;;;;;1.48;0.43;;;;;;;;;;5046842;28;20075;-55
2021/01/13 10:36:09;;;;;;;0.10;0.10;;;;;;;;;;5046783;28;20516;-56
2021/01/13 10:38:38;;;;;;;0.20;0.20;;;;;;;;;;5050614;28;20686;-54
2021/01/13 10:41:04;;;;;;;0.80;0.30;;;;;;;;;;5050299;28;20052;-55
2021/01/13 10:43:33;;;;;;;0.13;0.13;;;;;;;;;;5050001;28;20025;-55
2021/01/13 10:46:01;;;;;;;0.10;0.10;;;;;;;;;;5051047;28;20025;-57
2021/01/13 10:48:28;;;;;;;0.50;0.50;;;;;;;;;;5051412;28;20079;-57
2021/01/13 10:50:56;;;;;;;0.10;0.10;;;;;;;;;;5051479;28;20127;-56
2021/01/13 10:53:30;;;;;;;4.05;0.40;;;;;;;;;;5048486;28;20066;-57
2021/01/13 10:56:00;;;;;;;0.10;0.10;;;;;;;;;;5050427;28;20049;-56
2021/01/13 10:58:27;;;;;;;0.10;0.10;;;;;;;;;;5049088;28;20104;-58
2021/01/13 11:01:04;;;;;;;0.20;0.20;;;;;;;;;;5052419;28;20084;-55
2021/01/13 11:03:33;;;;;;;1.35;0.20;;;;;;;;;;5050821;28;20600;-57
2021/01/13 11:06:00;;;;;;;1.83;0.55;;;;;;;;;;5046843;28;20040;-56
2021/01/13 11:08:29;;;;;;;0.03;0.03;;;;;;;;;;5047515;28;20017;-57
2021/01/13 11:11:07;;;;;;;0.43;0.20;;;;;;;;;;5048757;28;20095;-56
2021/01/13 11:13:44;;;;;;;2.40;0.47;;;;;;;;;;5045470;28;20029;-58
2021/01/13 11:16:10;;;;;;;3.50;1.05;;;;;;;;;;5048667;28;20071;-56
2021/01/13 11:18:37;;;;;;;1.65;1.55;;;;;;;;;;5047262;28;20028;-54
2021/01/13 11:21:08;;;;;;;2.65;1.10;;;;;;;;;;5045533;28;20390;-57
2021/01/13 11:23:41;;;;;;;0.20;0.20;;;;;;;;;;5046746;28;20029;-56
2021/01/13 11:26:08;;;;;;;0.00;0.00;;;;;;;;;;5044295;28;20028;-58
2021/01/13 11:28:34;;;;;;;2.50;0.50;;;;;;;;;;5045718;28;20053;-57
2021/01/13 11:31:01;;;;;;;0.10;0.10;;;;;;;;;;5047993;28;20085;-59
2021/01/13 11:33:27;;;;;;;0.47;0.10;;;;;;;;;;5048465;28;20072;-58
2021/01/13 11:35:54;;;;;;;8.20;0.90;;;;;;;;;;5047484;28;20029;-56
2021/01/13 11:38:23;;;;;;;0.98;0.10;;;;;;;;;;5047047;28;20029;-57
2021/01/13 11:40:58;;;;;;;0.00;0.00;;;;;;;;;;5047460;28;20036;-58
2021/01/13 11:43:54;;;;;;;2.50;0.65;;;;;;;;;;5044580;28;20032;-57
2021/01/13 11:46:30;;;;;;;0.98;0.73;;;;;;;;;;5037443;28;20595;-58
2021/01/13 11:49:10;;;;;;;0.00;0.00;;;;;;;;;;5039165;28;20180;-58
2021/01/13 11:51:41;;;;;;;1.25;0.10;;;;;;;;;;5038885;28;20049;-58
2021/01/13 11:54:09;;;;;;;0.00;0.00;;;;;;;;;;5037784;28;20053;-58
2021/01/13 11:56:35;;;;;;;0.00;0.00;;;;;;;;;;5039969;28;20127;-57
2021/01/13 11:59:02;;;;;;;0.10;0.10;;;;;;;;;;5042937;28;20021;-58
2021/01/13 12:01:29;;;;;;;0.00;0.00;;;;;;;;;;5038871;28;20419;-58
2021/01/13 12:03:57;;;;;;;0.08;0.08;;;;;;;;;;5038554;28;20041;-58
2021/01/13 12:06:23;;;;;;;0.95;0.88;;;;;;;;;;5037824;28;20578;-58
2021/01/13 12:08:49;;;;;;;0.00;0.00;;;;;;;;;;5037889;28;20071;-59
2021/01/13 12:11:15;;;;;;;3.03;0.82;;;;;;;;;;5040772;28;20500;-56
2021/01/13 12:13:45;;;;;;;0.10;0.10;;;;;;;;;;5055558;28;20504;-57
2021/01/13 12:16:15;;;;;;;2.22;0.80;;;;;;;;;;5037269;28;20489;-58
2021/01/13 12:18:46;;;;;;;0.73;0.20;;;;;;;;;;5051348;28;20593;-57
2021/01/13 12:21:12;;;;;;;1.00;0.52;;;;;;;;;;5038627;28;20033;-59
2021/01/13 12:23:39;;;;;;;0.40;0.30;;;;;;;;;;5044661;28;20029;-57
2021/01/13 12:26:14;;;;;;;0.10;0.10;;;;;;;;;;5042106;28;20036;-57
2021/01/13 12:28:46;;;;;;;0.45;0.45;;;;;;;;;;5046005;28;20846;-55
2021/01/13 12:31:12;;;;;;;0.65;0.40;;;;;;;;;;5045271;28;20411;-57
2021/01/13 12:33:39;;;;;;;0.00;0.00;;;;;;;;;;5048934;28;20036;-56
2021/01/13 12:36:16;;;;;;;0.10;0.10;;;;;;;;;;5044468;28;20032;-56
2021/01/13 12:38:46;;;;;;;0.20;0.20;;;;;;;;;;5044880;28;20025;-58
2021/01/13 12:41:12;;;;;;;1.88;0.30;;;;;;;;;;5043205;28;20055;-58
2021/01/13 12:43:38;;;;;;;0.10;0.10;;;;;;;;;;5047546;28;20029;-57
2021/01/13 12:46:04;;;;;;;3.20;0.20;;;;;;;;;;5047330;28;20067;-58
2021/01/13 12:48:30;;;;;;;0.10;0.10;;;;;;;;;;5048751;28;20016;-57
2021/01/13 12:50:56;;;;;;;0.30;0.30;;;;;;;;;;5049713;28;20036;-57
2021/01/13 12:53:23;;;;;;;4.05;1.00;;;;;;;;;;5048423;28;20032;-58
2021/01/13 12:55:49;;;;;;;0.52;0.40;;;;;;;;;;5047218;28;20112;-56
2021/01/13 12:58:15;;;;;;;0.10;0.10;;;;;;;;;;5044983;28;20494;-58
2021/01/13 13:00:41;;;;;;;8.45;0.93;;;;;;;;;;5046374;28;20525;-58
2021/01/13 13:03:07;;;;;;;0.10;0.10;;;;;;;;;;5049380;28;20024;-57
2021/01/13 13:05:33;;;;;;;0.10;0.10;;;;;;;;;;5047903;28;20025;-56
2021/01/13 13:07:59;;;;;;;0.10;0.10;;;;;;;;;;5046442;28;20043;-57
2021/01/13 13:10:25;;;;;;;0.00;0.00;;;;;;;;;;5045699;28;20557;-58
2021/01/13 13:12:52;;;;;;;0.10;0.10;;;;;;;;;;5047529;28;20429;-58
2021/01/13 13:15:18;;;;;;;0.80;0.55;;;;;;;;;;5047476;28;20422;-55
2021/01/13 13:17:44;;;;;;;0.10;0.10;;;;;;;;;;5047605;28;20071;-58
2021/01/13 13:20:11;;;;;;;0.20;0.15;;;;;;;;;;5046335;28;20025;-56
2021/01/13 13:22:37;;;;;;;6.32;1.77;;;;;;;;;;5045126;28;20413;-56
2021/01/13 13:25:06;;;;;;;2.78;0.68;;;;;;;;;;5046921;28;20032;-56
2021/01/13 13:27:36;;;;;;;0.00;0.00;;;;;;;;;;5046287;28;20731;-58
2021/01/13 13:30:04;;;;;;;0.25;0.25;;;;;;;;;;5046899;28;20029;-57
2021/01/13 13:32:30;;;;;;;17.50;1.60;;;;;;;;;;5045912;28;20029;-56
2021/01/13 13:34:56;;;;;;;0.95;0.20;;;;;;;;;;5046850;28;20025;-59
2021/01/13 13:37:23;;;;;;;0.30;0.20;;;;;;;;;;5045627;28;20490;-57
2021/01/13 13:39:49;;;;;;;0.10;0.10;;;;;;;;;;5045604;28;20033;-56
2021/01/13 13:42:15;;;;;;;0.03;0.03;;;;;;;;;;5045927;28;20040;-57
2021/01/13 13:44:41;;;;;;;0.10;0.10;;;;;;;;;;5045415;28;20132;-55
2021/01/13 13:47:08;;;;;;;3.72;1.33;;;;;;;;;;5043590;28;20021;-56
2021/01/13 13:49:34;;;;;;;9.68;0.40;;;;;;;;;;5042914;28;20025;-59
2021/01/13 13:52:01;;;;;;;11.30;1.00;;;;;;;;;;5044661;28;20055;-57
2021/01/13 13:54:27;;;;;;;0.13;0.13;;;;;;;;;;5045270;28;20028;-57
2021/01/13 13:56:54;;;;;;;1.35;0.20;;;;;;;;;;5048296;28;20513;-58
2021/01/13 13:59:20;;;;;;;4.45;0.30;;;;;;;;;;5042642;28;20036;-56
2021/01/13 14:01:46;;;;;;;2.90;0.22;;;;;;;;;;5042192;28;20096;-58
2021/01/13 14:04:12;;;;;;;2.00;0.22;;;;;;;;;;5045253;28;20078;-54
2021/01/13 14:06:38;;;;;;;0.38;0.38;;;;;;;;;;5045783;28;20040;-56
2021/01/13 14:09:05;;;;;;;0.63;0.63;;;;;;;;;;5046710;28;20160;-59
2021/01/13 14:11:43;;;;;;;0.10;0.10;;;;;;;;;;5044527;28;20120;-56
2021/01/13 14:14:10;;;;;;;0.52;0.38;;;;;;;;;;5044352;28;20036;-58
2021/01/13 14:16:37;;;;;;;4.88;0.65;;;;;;;;;;5045877;28;20017;-56
2021/01/13 14:19:03;;;;;;;0.45;0.45;;;;;;;;;;5048567;28;20353;-55
2021/01/13 14:21:29;;;;;;;0.98;0.32;;;;;;;;;;5048801;28;20032;-55
2021/01/13 14:23:55;;;;;;;11.20;0.77;;;;;;;;;;5048059;28;20025;-56
2021/01/13 14:26:22;;;;;;;3.13;3.03;;;;;;;;;;5046071;28;20028;-57
2021/01/13 14:28:49;;;;;;;5.00;0.70;;;;;;;;;;5047053;28;20028;-56
2021/01/13 14:31:15;;;;;;;0.10;0.10;;;;;;;;;;5048636;28;20033;-57
2021/01/13 14:33:41;;;;;;;1.17;0.38;;;;;;;;;;5048374;28;20021;-56
2021/01/13 14:36:08;;;;;;;0.10;0.10;;;;;;;;;;5047077;28;20033;-56
2021/01/13 14:38:34;;;;;;;5.57;0.75;;;;;;;;;;5047215;28;20052;-56
2021/01/13 14:41:00;;;;;;;3.95;0.80;;;;;;;;;;5045486;28;20079;-57
2021/01/13 14:43:27;;;;;;;1.55;0.10;;;;;;;;;;5048653;28;20020;-58
2021/01/13 14:45:53;;;;;;;0.10;0.10;;;;;;;;;;5048530;28;20051;-56
2021/01/13 14:48:19;;;;;;;1.50;0.88;;;;;;;;;;5049347;28;20557;-54
2021/01/13 14:50:45;;;;;;;3.88;0.98;;;;;;;;;;5050433;28;20045;-57
2021/01/13 14:53:11;;;;;;;0.17;0.17;;;;;;;;;;5048533;28;20509;-58
2021/01/13 14:55:37;;;;;;;3.55;0.73;;;;;;;;;;5048660;28;20033;-57
2021/01/13 14:58:03;;;;;;;8.32;1.15;;;;;;;;;;5049185;28;20021;-56
2021/01/13 15:00:30;;;;;;;0.65;0.32;;;;;;;;;;5049470;28;20053;-55
2021/01/13 15:02:56;;;;;;;1.08;0.10;;;;;;;;;;5049579;28;20037;-56
2021/01/13 15:05:22;;;;;;;0.65;0.43;;;;;;;;;;5048197;28;20079;-58
2021/01/13 15:07:49;;;;;;;0.00;0.00;;;;;;;;;;5048078;28;20116;-56
2021/01/13 15:10:15;;;;;;;16.35;2.05;;;;;;;;;;5047678;28;20788;-57
2021/01/13 15:12:41;;;;;;;1.17;1.08;;;;;;;;;;5049435;28;20521;-54
2021/01/13 15:15:08;;;;;;;0.55;0.15;;;;;;;;;;5050516;28;20025;-58
2021/01/13 15:17:34;;;;;;;0.10;0.10;;;;;;;;;;5048922;28;20441;-57
2021/01/13 15:20:00;;;;;;;0.10;0.10;;;;;;;;;;5047114;28;20032;-57
2021/01/13 15:22:26;;;;;;;0.20;0.10;;;;;;;;;;5046515;28;20027;-57
2021/01/13 15:24:52;;;;;;;2.38;0.20;;;;;;;;;;5049636;28;20025;-57
2021/01/13 15:27:19;;;;;;;4.03;1.08;;;;;;;;;;5047285;28;20060;-55
2021/01/13 15:29:46;;;;;;;11.10;0.68;;;;;;;;;;5048231;28;20035;-56
2021/01/13 15:32:12;;;;;;;1.27;1.17;;;;;;;;;;5045920;28;20044;-54
2021/01/13 15:34:39;;;;;;;0.10;0.10;;;;;;;;;;5047208;28;20497;-54
2021/01/13 15:37:06;;;;;;;0.10;0.10;;;;;;;;;;5048444;28;20765;-55
2021/01/13 15:39:32;;;;;;;0.10;0.10;;;;;;;;;;5049768;28;20029;-54
2021/01/13 15:42:05;;;;;;;5.15;0.25;;;;;;;;;;5046614;28;20029;-56
2021/01/13 15:44:31;;;;;;;0.30;0.30;;;;;;;;;;5048397;28;20062;-57
2021/01/13 15:46:57;;;;;;;0.10;0.10;;;;;;;;;;5044735;28;20029;-59
2021/01/13 15:49:25;;;;;;;0.80;0.80;;;;;;;;;;5046641;28;20033;-58
2021/01/13 15:51:51;;;;;;;5.05;1.77;;;;;;;;;;5044883;28;20044;-55
2021/01/13 15:54:17;;;;;;;12.85;0.95;;;;;;;;;;5049867;28;20037;-55
2021/01/13 15:56:43;;;;;;;0.10;0.10;;;;;;;;;;5048553;28;20025;-57
2021/01/13 15:59:10;;;;;;;0.10;0.10;;;;;;;;;;5047107;28;20025;-56
2021/01/13 16:01:37;;;;;;;1.08;0.57;;;;;;;;;;5046567;28;20044;-55
2021/01/13 16:04:03;;;;;;;0.20;0.20;;;;;;;;;;5037888;28;20033;-58
2021/01/13 16:06:34;;;;;;;0.10;0.10;;;;;;;;;;5031838;28;20025;-56
2021/01/13 16:09:00;;;;;;;0.10;0.10;;;;;;;;;;5034211;28;20471;-60
2021/01/13 16:11:26;;;;;;;2.67;0.77;;;;;;;;;;5038293;28;20036;-60
2021/01/13 16:13:58;;;;;;;9.38;1.40;;;;;;;;;;5037556;28;20023;-60
2021/01/13 16:16:24;;;;;;;0.98;0.57;;;;;;;;;;5038288;28;20087;-60
2021/01/13 16:18:51;;;;;;;0.10;0.10;;;;;;;;;;5039482;28;20486;-59
2021/01/13 16:21:18;;;;;;;0.20;0.17;;;;;;;;;;5030864;28;20092;-59
2021/01/13 16:23:44;;;;;;;0.55;0.55;;;;;;;;;;5031782;28;20109;-58
2021/01/13 16:26:11;;;;;;;0.10;0.10;;;;;;;;;;5033132;28;20103;-58
2021/01/13 16:28:38;;;;;;;0.10;0.10;;;;;;;;;;5031251;28;20514;-59
2021/01/13 16:31:08;;;;;;;0.00;0.00;;;;;;;;;;5040503;28;20048;-59
2021/01/13 16:33:38;;;;;;;0.52;0.52;;;;;;;;;;5042013;28;20041;-59
2021/01/13 16:36:06;;;;;;;0.28;0.28;;;;;;;;;;5035302;28;20414;-59
2021/01/13 16:38:32;;;;;;;0.35;0.25;;;;;;;;;;5035710;28;20465;-58
2021/01/13 16:40:58;;;;;;;0.43;0.35;;;;;;;;;;5033245;28;20060;-59
2021/01/13 16:43:29;;;;;;;0.10;0.10;;;;;;;;;;5030338;28;20025;-59
2021/01/13 16:45:56;;;;;;;1.55;0.85;;;;;;;;;;5030914;28;20119;-58
2021/01/13 16:48:22;;;;;;;0.90;0.15;;;;;;;;;;5032481;28;20025;-59
2021/01/13 16:50:48;;;;;;;0.10;0.10;;;;;;;;;;5033318;28;20079;-59
2021/01/13 16:53:15;;;;;;;4.90;0.47;;;;;;;;;;5033507;28;20020;-59
2021/01/13 16:55:41;;;;;;;0.20;0.20;;;;;;;;;;5032164;28;20037;-59
2021/01/13 16:58:12;;;;;;;0.10;0.10;;;;;;;;;;5034132;28;20024;-58
2021/01/13 17:00:40;;;;;;;0.35;0.35;;;;;;;;;;5031962;28;20049;-58
2021/01/13 17:03:09;;;;;;;0.43;0.32;;;;;;;;;;5037880;28;20128;-59
2021/01/13 17:05:35;;;;;;;0.00;0.00;;;;;;;;;;5043562;28;20033;-54
2021/01/13 17:08:01;;;;;;;0.10;0.10;;;;;;;;;;5035014;28;20025;-59
2021/01/13 17:10:29;;;;;;;0.05;0.05;;;;;;;;;;5046602;28;20052;-59
2021/01/13 17:12:56;;;;;;;1.27;0.30;;;;;;;;;;5047764;28;20025;-60
2021/01/13 17:15:22;;;;;;;0.10;0.10;;;;;;;;;;5045619;28;20521;-59
2021/01/13 17:17:53;;;;;;;0.57;0.57;;;;;;;;;;5048553;28;20068;-60
2021/01/13 17:20:20;;;;;;;0.28;0.28;;;;;;;;;;5045074;28;20068;-60
2021/01/13 17:22:47;;;;;;;0.10;0.10;;;;;;;;;;5044944;28;20052;-60
2021/01/13 17:25:13;;;;;;;0.10;0.10;;;;;;;;;;5043826;28;20075;-60
2021/01/13 17:27:43;;;;;;;0.10;0.10;;;;;;;;;;5043397;28;20026;-60
2021/01/13 17:30:11;;;;;;;0.10;0.10;;;;;;;;;;5044926;28;20136;-60
2021/01/13 17:32:38;;;;;;;0.95;0.95;;;;;;;;;;5046180;28;20029;-59
2021/01/13 17:35:05;;;;;;;3.20;1.10;;;;;;;;;;5044744;28;20372;-60
2021/01/13 17:37:32;;;;;;;1.27;0.93;;;;;;;;;;5045251;28;20079;-60
2021/01/13 17:40:01;;;;;;;0.10;0.10;;;;;;;;;;5045610;28;20032;-59
2021/01/13 17:42:28;;;;;;;0.10;0.10;;;;;;;;;;5030283;28;20411;-59
2021/01/13 17:44:54;;;;;;;0.10;0.10;;;;;;;;;;5044596;28;20036;-59
2021/01/13 17:47:23;;;;;;;0.10;0.10;;;;;;;;;;5045130;28;20025;-60
2021/01/13 17:49:50;;;;;;;0.20;0.20;;;;;;;;;;5045037;28;20083;-60
2021/01/13 17:52:16;;;;;;;0.10;0.10;;;;;;;;;;5045117;28;20021;-60
2021/01/13 17:54:43;;;;;;;0.82;0.57;;;;;;;;;;5044768;28;20029;-60
2021/01/13 17:57:15;;;;;;;0.52;0.10;;;;;;;;;;5047262;28;20060;-60
2021/01/13 17:59:41;;;;;;;0.20;0.20;;;;;;;;;;5047117;28;20049;-60
2021/01/13 18:02:10;;;;;;;0.10;0.10;;;;;;;;;;5035029;28;20123;-60
2021/01/13 18:04:39;;;;;;;2.65;1.00;;;;;;;;;;5038904;28;20162;-59
2021/01/13 18:07:05;;;;;;;0.10;0.10;;;;;;;;;;5044630;28;20096;-60
2021/01/13 18:09:31;;;;;;;10.70;2.15;;;;;;;;;;5045319;28;20037;-60
2021/01/13 18:11:57;;;;;;;0.25;0.20;;;;;;;;;;5047721;28;20083;-59
2021/01/13 18:14:23;;;;;;;0.10;0.10;;;;;;;;;;5045238;28;20033;-60
2021/01/13 18:16:49;;;;;;;1.00;0.43;;;;;;;;;;5046530;28;20079;-60
2021/01/13 18:19:15;;;;;;;0.55;0.55;;;;;;;;;;5047210;28;20025;-59
2021/01/13 18:21:42;;;;;;;0.57;0.40;;;;;;;;;;5047191;28;20021;-60
2021/01/13 18:24:08;;;;;;;6.68;1.13;;;;;;;;;;5049296;28;20021;-59
2021/01/13 18:26:37;;;;;;;0.38;0.32;;;;;;;;;;5048047;28;20401;-60
2021/01/13 18:29:03;;;;;;;1.92;0.65;;;;;;;;;;5042866;28;20108;-60
2021/01/13 18:31:29;;;;;;;0.35;0.25;;;;;;;;;;5044798;28;20033;-60
2021/01/13 18:33:55;;;;;;;0.10;0.10;;;;;;;;;;5047670;28;20116;-59
2021/01/13 18:36:21;;;;;;;2.03;1.63;;;;;;;;;;5044205;28;20104;-60
2021/01/13 18:38:48;;;;;;;1.55;0.38;;;;;;;;;;5049441;28;20028;-59
2021/01/13 18:41:14;;;;;;;0.10;0.10;;;;;;;;;;5046478;28;20013;-60
2021/01/13 18:43:40;;;;;;;1.02;1.00;;;;;;;;;;5046838;28;20402;-60
2021/01/13 18:46:06;;;;;;;0.00;0.00;;;;;;;;;;5046291;28;20052;-60
2021/01/13 18:48:32;;;;;;;0.10;0.10;;;;;;;;;;5046284;28;20059;-60
2021/01/13 18:50:58;;;;;;;0.10;0.10;;;;;;;;;;5048362;28;20059;-60
2021/01/13 18:53:24;;;;;;;0.28;0.28;;;;;;;;;;5048603;28;20108;-59
2021/01/13 18:55:50;;;;;;;0.10;0.10;;;;;;;;;;5046547;28;20095;-60
2021/01/13 18:58:16;;;;;;;2.78;0.73;;;;;;;;;;5048643;28;20017;-60
2021/01/13 19:00:42;;;;;;;1.38;0.30;;;;;;;;;;5050709;28;20053;-60
2021/01/13 19:03:09;;;;;;;0.63;0.30;;;;;;;;;;5048188;28;20051;-60
2021/01/13 19:05:35;;;;;;;0.80;0.40;;;;;;;;;;5048473;28;20227;-60
2021/01/13 19:08:02;;;;;;;2.88;2.33;;;;;;;;;;5042962;28;20060;-57
2021/01/13 19:10:28;;;;;;;13.20;3.40;;;;;;;;;;5048459;28;20037;-60
2021/01/13 19:12:54;;;;;;;1.02;0.47;;;;;;;;;;5049204;28;20021;-60
2021/01/13 19:15:20;;;;;;;0.30;0.30;;;;;;;;;;5048321;28;20034;-58
2021/01/13 19:17:47;;;;;;;0.45;0.45;;;;;;;;;;5048860;28;20021;-59
2021/01/13 19:20:13;;;;;;;1.15;0.60;;;;;;;;;;5049787;28;20040;-60
2021/01/13 19:22:39;;;;;;;1.48;1.38;;;;;;;;;;5047492;28;20025;-60
2021/01/13 19:25:06;;;;;;;0.55;0.55;;;;;;;;;;5047112;28;20053;-60
2021/01/13 19:27:36;;;;;;;0.95;0.95;;;;;;;;;;5047489;28;20969;-60
2021/01/13 19:30:03;;;;;;;0.10;0.10;;;;;;;;;;5049973;28;20029;-59
2021/01/13 19:32:29;;;;;;;0.10;0.10;;;;;;;;;;5044030;28;20041;-60
2021/01/13 19:34:55;;;;;;;1.52;0.57;;;;;;;;;;5047289;28;20024;-60
2021/01/13 19:37:21;;;;;;;5.68;0.85;;;;;;;;;;5047198;28;20017;-59
2021/01/13 19:39:48;;;;;;;0.10;0.10;;;;;;;;;;5048861;28;20021;-59
2021/01/13 19:42:14;;;;;;;0.10;0.10;;;;;;;;;;5047068;28;20525;-60
2021/01/13 19:44:40;;;;;;;0.63;0.30;;;;;;;;;;5047177;28;20477;-59
2021/01/13 19:47:09;;;;;;;0.65;0.65;;;;;;;;;;5048575;28;20028;-59
2021/01/13 19:49:35;;;;;;;4.63;1.27;;;;;;;;;;5048026;28;20037;-59
2021/01/13 19:52:01;;;;;;;1.30;1.30;;;;;;;;;;5048496;28;20410;-59
2021/01/13 19:54:27;;;;;;;0.10;0.10;;;;;;;;;;5048210;28;20025;-60
2021/01/13 19:56:54;;;;;;;0.90;0.85;;;;;;;;;;5049039;28;20457;-60
2021/01/13 19:59:20;;;;;;;0.30;0.30;;;;;;;;;;5048220;28;20033;-59
2021/01/13 20:01:46;;;;;;;0.10;0.10;;;;;;;;;;5047989;28;20049;-59
2021/01/13 20:04:13;;;;;;;0.10;0.10;;;;;;;;;;5046223;28;20068;-59
2021/01/13 20:06:40;;;;;;;5.15;1.63;;;;;;;;;;5046750;28;20113;-59
2021/01/13 20:09:10;;;;;;;1.58;0.68;;;;;;;;;;5047978;28;20049;-60
2021/01/13 20:11:40;;;;;;;2.95;0.68;;;;;;;;;;5047760;28;20044;-59
2021/01/13 20:14:07;;;;;;;1.50;1.33;;;;;;;;;;5046441;28;20115;-59
2021/01/13 20:16:34;;;;;;;0.20;0.20;;;;;;;;;;5046520;28;20024;-59
2021/01/13 20:19:00;;;;;;;0.45;0.45;;;;;;;;;;5047049;28;20027;-59
2021/01/13 20:21:26;;;;;;;0.25;0.25;;;;;;;;;;5030900;28;20025;-59
2021/01/13 20:23:52;;;;;;;0.57;0.57;;;;;;;;;;5065569;28;20059;-59
2021/01/13 20:26:18;;;;;;;0.50;0.40;;;;;;;;;;5047470;28;20037;-59
2021/01/13 20:28:44;;;;;;;0.10;0.10;;;;;;;;;;5047221;28;20457;-59
2021/01/13 20:31:14;;;;;;;0.30;0.20;;;;;;;;;;5047579;28;20033;-59
2021/01/13 20:33:41;;;;;;;2.95;0.68;;;;;;;;;;5047429;28;20121;-59
2021/01/13 20:36:07;;;;;;;0.10;0.10;;;;;;;;;;5048575;28;20029;-59
2021/01/13 20:38:33;;;;;;;2.05;0.85;;;;;;;;;;5048401;28;20021;-60
2021/01/13 20:40:59;;;;;;;0.30;0.30;;;;;;;;;;5047344;28;20037;-60
2021/01/13 20:43:25;;;;;;;2.33;1.05;;;;;;;;;;5046891;28;20029;-59
2021/01/13 20:45:51;;;;;;;0.43;0.25;;;;;;;;;;5047806;28;20025;-59
2021/01/13 20:48:17;;;;;;;0.10;0.10;;;;;;;;;;5048021;28;20095;-59
2021/01/13 20:50:44;;;;;;;0.65;0.65;;;;;;;;;;5048821;28;20069;-60